Latest Weather Observations for Gatton

IDQ60801

Issued at 4:32 pm EST Wednesday 24 August 2016 (issued every 30 minutes, with the page automatically refreshed every 10 minutes)

About weather observations | Map of weather stations | Latest weather observations for QLD | Other Formats
Station Details ID: 040082 Name: UNIVERSITY OF QUEENSLAND GATTON Lat: -27.54 Lon: 152.34 Height: 89.0 m
Data from the previous 72 hours. | See also: Recent months at Gatton
Date/Time
EST
Temp
°C
App
Temp
°C
Dew
Point
°C
Rel
Hum
%
Delta-T
°C
Wind Press
QNH
hPa
Press
MSL
hPa
Rain since
9am
mm
Dir  Spd
km/h
Gust
km/h
Spd
kts
Gust
kts
24/04:30pm 16.5 16.6 15.4 93 0.6 N 9 11 5 6 - - 5.2
24/04:00pm 16.7 17.8 15.6 93 0.6 NE 4 15 2 8 - - 5.2
24/03:30pm 16.8 16.9 15.5 92 0.8 N 9 9 5 5 - - 5.2
24/03:00pm 16.9 18.7 15.6 92 0.8 CALM 0 0 0 0 - - 5.0
24/02:30pm 16.6 18.0 15.3 92 0.8 ESE 2 7 1 4 - - 5.0
24/02:00pm 16.6 18.3 15.1 91 0.9 CALM 0 7 0 4 - - 3.2
24/01:30pm 16.3 15.2 15.2 93 0.6 SSE 15 26 8 14 - - 3.0
24/01:00pm 16.3 15.2 15.2 93 0.6 SSE 15 22 8 12 - - 2.6
24/12:30pm 16.4 15.5 14.9 91 0.9 SSE 13 24 7 13 - - 2.0
24/12:00pm 16.6 14.7 15.3 92 0.8 SSE 19 30 10 16 - - 1.6
24/11:30am 16.7 15.3 15.6 93 0.6 SSE 17 26 9 14 - - 1.4
24/11:00am 17.5 17.6 16.5 94 0.6 SSE 11 17 6 9 - - 1.0
24/10:30am 17.8 17.9 16.5 92 0.8 ESE 11 17 6 9 - - 0.6
24/10:00am 18.9 21.8 18.1 95 0.5 CALM 0 7 0 4 - - 0.2
24/09:30am 18.8 20.3 18.0 95 0.5 NNE 7 11 4 6 - - 0.0
24/09:00am 18.8 20.9 18.1 96 0.4 ENE 4 9 2 5 - - 17.0
24/08:30am 18.2 20.8 17.6 96 0.4 CALM 0 6 0 3 - - 16.8
24/08:00am 17.9 20.4 17.3 96 0.4 CALM 0 0 0 0 - - 16.8
24/07:30am 17.7 20.1 17.1 96 0.4 CALM 0 0 0 0 - - 15.8
24/07:00am 17.7 20.1 16.9 95 0.5 CALM 0 0 0 0 - - 14.4
24/06:30am 17.9 20.3 17.1 95 0.5 CALM 0 0 0 0 - - 13.6
24/06:00am 17.8 20.2 17.0 95 0.5 CALM 0 0 0 0 - - 12.8
24/05:30am 17.8 20.3 17.2 96 0.4 CALM 0 0 0 0 - - 12.8
24/05:00am 17.7 20.1 17.1 96 0.4 CALM 0 0 0 0 - - 12.8
24/04:30am 17.6 18.9 17.0 96 0.4 SE 6 11 3 6 - - 12.8
24/04:00am 17.4 19.0 16.8 96 0.4 SSE 4 11 2 6 - - 12.6
24/03:30am 17.3 19.5 16.5 95 0.5 CALM 0 0 0 0 - - 12.6
24/03:00am 17.2 19.4 16.4 95 0.5 CALM 0 0 0 0 - - 12.6
24/02:30am 17.1 19.2 16.3 95 0.5 CALM 0 0 0 0 - - 12.6
24/02:00am 17.2 19.4 16.4 95 0.5 CALM 0 0 0 0 - - 12.6
24/01:30am 17.2 19.4 16.4 95 0.5 CALM 0 0 0 0 - - 12.4
24/01:00am 17.3 19.5 16.5 95 0.5 CALM 0 0 0 0 - - 12.4
24/12:30am 17.2 19.3 16.2 94 0.6 CALM 0 0 0 0 - - 12.4
24/12:00am 17.3 19.5 16.5 95 0.5 CALM 0 0 0 0 - - 12.4
 
Date/Time
EST
Temp
°C
App
Temp
°C
Dew
Point
°C
Rel
Hum
%
Delta-T
°C
Wind Press
QNH
hPa
Press
MSL
hPa
Rain since
9am
mm
Dir  Spd
km/h
Gust
km/h
Spd
kts
Gust
kts
23/11:30pm 17.3 19.5 16.5 95 0.5 CALM 0 0 0 0 - - 12.4
23/11:00pm 17.3 19.5 16.5 95 0.5 CALM 0 0 0 0 - - 12.4
23/10:30pm 17.3 19.4 16.3 94 0.6 CALM 0 0 0 0 - - 9.0
23/10:00pm 17.3 19.4 16.3 94 0.6 CALM 0 6 0 3 - - 8.0
23/09:30pm 17.4 19.6 16.6 95 0.5 CALM 0 0 0 0 - - 8.0
23/09:00pm 16.9 18.8 15.8 93 0.6 CALM 0 0 0 0 - - 8.0
23/08:30pm 17.8 20.1 16.7 93 0.7 CALM 0 0 0 0 - - 8.0
23/08:00pm 17.8 20.1 16.7 93 0.7 CALM 0 0 0 0 - - 8.0
23/07:30pm 18.2 20.7 17.2 94 0.6 CALM 0 0 0 0 - - 8.0
23/07:00pm 18.2 19.3 17.0 93 0.7 NNE 7 11 4 6 - - 8.0
23/06:30pm 18.5 19.8 17.2 92 0.8 NE 6 11 3 6 - - 8.0
23/06:00pm 19.0 21.6 17.5 91 0.9 CALM 0 0 0 0 - - 8.0
23/05:30pm 18.9 21.4 17.2 90 1.0 CALM 0 0 0 0 - - 8.0
23/05:00pm 19.3 21.9 17.4 89 1.2 CALM 0 2 0 1 - - 7.4
23/04:30pm 20.3 22.8 17.3 83 1.8 CALM 0 4 0 2 - - 5.4
23/04:00pm 20.8 23.2 18.0 84 1.7 ESE 2 9 1 5 - - 5.4
23/03:30pm 20.5 21.9 17.7 84 1.7 ESE 7 11 4 6 - - 5.4
23/03:00pm 20.7 22.1 17.7 83 1.9 SE 7 11 4 6 - - 5.4
23/02:30pm 20.9 21.8 16.5 76 2.7 SSE 7 15 4 8 - - 4.2
23/02:00pm 24.2 24.4 14.3 54 5.9 SW 6 11 3 6 - - 0.0
23/01:30pm 24.1 22.2 14.2 54 5.9 WSW 17 26 9 14 - - 0.0
23/01:00pm 24.3 23.1 15.0 56 5.6 WSW 15 26 8 14 - - 0.0
23/12:30pm 24.4 23.1 14.8 55 5.7 WSW 15 24 8 13 - - 0.0
23/12:00pm 23.4 21.6 14.4 57 5.3 W 17 30 9 16 - - 0.0
23/11:30am 24.1 22.2 15.3 58 5.3 WSW 19 28 10 15 - - 0.0
23/11:00am 22.1 21.4 15.5 66 4.0 SW 13 20 7 11 - - 0.0
23/10:30am 21.1 21.2 15.6 71 3.3 SW 9 15 5 8 - - 0.0
23/10:00am 20.8 21.2 15.4 71 3.2 SW 7 11 4 6 - - 0.0
23/09:30am 20.3 20.9 15.3 73 3.0 WSW 6 11 3 6 - - 0.0
23/09:00am 19.5 20.4 15.2 76 2.5 WSW 4 9 2 5 - - 0.0
23/08:30am 18.2 18.4 15.8 86 1.4 WSW 9 13 5 7 - - 0.0
23/08:00am 17.2 18.5 15.2 88 1.2 W 2 6 1 3 - - 0.0
23/07:30am 16.1 17.7 14.8 92 0.7 CALM 0 0 0 0 - - 0.0
23/07:00am 14.2 15.2 13.2 94 0.6 CALM 0 0 0 0 - - 0.0
23/06:30am 13.3 13.9 12.0 92 0.7 CALM 0 0 0 0 - - 0.0
23/06:00am 13.9 14.8 12.8 93 0.6 CALM 0 0 0 0 - - 0.0
23/05:30am 14.2 15.1 12.8 91 0.8 CALM 0 0 0 0 - - 0.0
23/05:00am 14.8 15.8 13.2 90 0.9 CALM 0 0 0 0 - - 0.0
23/04:30am 15.2 16.4 13.9 92 0.7 CALM 0 0 0 0 - - 0.0
23/04:00am 15.7 17.0 14.2 91 0.9 CALM 0 0 0 0 - - 0.0
23/03:30am 15.8 17.2 14.5 92 0.7 CALM 0 0 0 0 - - 0.0
23/03:00am 15.9 17.3 14.4 91 0.9 CALM 0 0 0 0 - - 0.0
23/02:30am 16.2 17.7 14.7 91 0.9 CALM 0 0 0 0 - - 0.0
23/02:00am 16.2 17.3 14.7 91 0.9 WSW 2 7 1 4 - - 0.0
23/01:30am 16.4 16.7 14.9 91 0.9 W 7 13 4 7 - - 0.0
23/01:00am 16.8 16.6 14.8 88 1.2 W 9 13 5 7 - - 0.0
23/12:30am 17.6 18.8 13.7 78 2.2 CALM 0 0 0 0 - - 0.0
23/12:00am 17.5 16.7 14.0 80 2.0 SW 11 15 6 8 - - 0.0
 
Date/Time
EST
Temp
°C
App
Temp
°C
Dew
Point
°C
Rel
Hum
%
Delta-T
°C
Wind Press
QNH
hPa
Press
MSL
hPa
Rain since
9am
mm
Dir  Spd
km/h
Gust
km/h
Spd
kts
Gust
kts
22/11:30pm 17.4 16.2 14.1 81 1.9 ENE 13 20 7 11 - - 0.0
22/11:00pm 16.6 15.8 13.9 84 1.5 E 11 15 6 8 - - 0.0
22/10:30pm 15.7 15.6 13.2 85 1.4 ESE 6 9 3 5 - - 0.0
22/10:00pm 15.9 15.2 13.2 84 1.5 E 9 11 5 6 - - 0.0
22/09:30pm 15.4 14.9 12.7 84 1.5 ESE 7 9 4 5 - - 0.0
22/09:00pm 15.8 15.4 12.5 81 1.8 ESE 6 7 3 4 - - 0.0
22/08:30pm 16.3 15.5 12.8 80 1.9 ESE 9 11 5 6 - - 0.0
22/08:00pm 16.9 16.4 12.8 77 2.3 SE 7 11 4 6 - - 0.0
22/07:30pm 17.4 16.6 12.9 75 2.5 E 9 13 5 7 - - 0.0
22/07:00pm 17.2 16.3 12.5 74 2.6 E 9 11 5 6 - - 0.0
22/06:30pm 18.5 17.1 12.3 67 3.5 ENE 11 15 6 8 - - 0.0
22/06:00pm 20.0 18.2 13.2 65 3.9 ENE 15 19 8 10 - - 0.0
22/05:30pm 20.8 19.3 13.0 61 4.5 ENE 13 19 7 10 - - 0.0
22/05:00pm 21.9 19.8 12.5 55 5.4 ENE 15 24 8 13 - - 0.0
22/04:30pm 23.5 20.3 11.9 48 6.6 ENE 20 32 11 17 - - 0.0
22/04:00pm 23.4 20.3 11.5 47 6.7 NE 19 24 10 13 - - 0.0
22/03:30pm 23.4 20.5 11.1 46 6.9 NE 17 24 9 13 - - 0.0
22/03:00pm 24.5 21.3 11.1 43 7.5 NNE 19 28 10 15 - - 0.0
22/02:30pm 24.3 21.0 11.6 45 7.2 NNE 20 28 11 15 - - 0.0
22/02:00pm 23.5 20.7 11.2 46 6.9 NE 17 30 9 16 - - 0.0
22/01:30pm 23.2 19.9 10.9 46 6.9 NE 19 30 10 16 - - 0.0
22/01:00pm 22.3 19.7 12.0 52 5.8 ENE 17 26 9 14 - - 0.0
22/12:30pm 22.7 19.7 12.0 50 6.1 ENE 19 28 10 15 - - 0.0
22/12:00pm 23.6 21.7 12.9 51 6.2 ENE 15 30 8 16 - - 0.0
22/11:30am 22.8 21.3 13.0 54 5.7 NE 13 19 7 10 - - 0.0
22/11:00am 20.1 19.3 11.8 59 4.6 NE 7 13 4 7 - - 0.0
22/10:30am 19.3 19.5 11.8 62 4.2 SSE 2 9 1 5 - - 0.0
22/10:00am 18.1 18.1 11.2 64 3.8 ENE 2 9 1 5 - - 0.0
22/09:30am 17.4 17.7 11.0 66 3.5 CALM 0 0 0 0 - - 0.0
22/09:00am 16.1 16.2 10.2 68 3.1 CALM 0 6 0 3 - - 0.0
22/08:30am 14.2 13.1 9.8 75 2.3 SW 6 9 3 5 - - 0.0
22/08:00am 11.7 9.9 8.0 78 1.8 W 7 9 4 5 - - 0.0
22/07:30am 9.9 7.9 7.0 82 1.4 W 7 9 4 5 - - 0.0
22/07:00am 8.1 7.3 6.4 89 0.8 CALM 0 0 0 0 - - 0.0
22/06:30am 6.7 5.5 4.7 87 0.9 CALM 0 0 0 0 - - 0.0
22/06:00am 7.1 4.8 4.8 85 1.0 W 6 11 3 6 - - 0.0
22/05:30am 7.4 4.9 4.9 84 1.1 W 7 11 4 6 - - 0.0
22/05:00am 8.3 5.9 5.4 82 1.3 W 7 9 4 5 - - 0.0
22/04:30am 8.3 5.2 5.6 83 1.2 W 11 13 6 7 - - 0.0
22/04:00am 7.5 4.2 4.8 83 1.2 W 11 15 6 8 - - 0.0
22/03:30am 7.6 4.3 4.4 80 1.4 W 11 15 6 8 - - 0.0
22/03:00am 7.6 4.6 4.0 78 1.6 WSW 9 11 5 6 - - 0.0
22/02:30am 6.6 3.4 2.9 77 1.5 WSW 9 13 5 7 - - 0.0
22/02:00am 7.3 3.7 3.2 75 1.7 WSW 11 15 6 8 - - 0.0
22/01:30am 7.5 4.3 3.0 73 1.9 W 9 11 5 6 - - 0.0
22/01:00am 8.1 4.6 3.4 72 2.0 WSW 11 13 6 7 - - 0.0
22/12:30am 8.5 5.5 4.3 75 1.8 WSW 9 11 5 6 - - 0.0
22/12:00am 8.8 5.7 5.4 79 1.5 WSW 11 13 6 7 - - 0.0
 
Date/Time
EST
Temp
°C
App
Temp
°C
Dew
Point
°C
Rel
Hum
%
Delta-T
°C
Wind Press
QNH
hPa
Press
MSL
hPa
Rain since
9am
mm
Dir  Spd
km/h
Gust
km/h
Spd
kts
Gust
kts
21/11:30pm 7.2 5.9 4.0 80 1.4 CALM 0 0 0 0 - - 0.0
21/11:00pm 7.4 5.9 3.1 74 1.8 CALM 0 0 0 0 - - 0.0
21/10:30pm 7.4 6.0 3.8 78 1.5 CALM 0 0 0 0 - - 0.0
21/10:00pm 8.2 7.0 4.8 79 1.5 CALM 0 0 0 0 - - 0.0
21/09:30pm 8.4 7.4 5.5 82 1.3 CALM 0 0 0 0 - - 0.0
21/09:00pm 9.1 7.8 4.3 72 2.1 CALM 0 0 0 0 - - 0.0
21/08:30pm 10.0 8.6 3.3 63 2.9 CALM 0 0 0 0 - - 0.0
21/08:00pm 11.3 10.1 4.5 63 3.1 CALM 0 0 0 0 - - 0.0
21/07:30pm 13.2 12.6 7.2 67 2.9 CALM 0 0 0 0 - - 0.0
21/07:00pm 13.9 12.8 6.7 62 3.5 ENE 2 11 1 6 - - 0.0
21/06:30pm 14.5 11.3 5.3 54 4.4 ENE 11 13 6 7 - - 0.0
21/06:00pm 15.2 11.4 -0.9 33 6.7 ESE 9 15 5 8 - - 0.0
21/05:30pm 18.3 16.0 -2.0 25 8.5 CALM 0 0 0 0 - - 0.0
21/05:00pm 20.7 18.0 -2.4 21 9.8 NE 2 7 1 4 - - 0.0

Other Formats:

Comma delimited format used in spreadsheet applications
http://www.bom.gov.au/fwo/IDQ60801/IDQ60801.94562.axf

JavaScript Object Notation format (JSON) in row-major order
http://www.bom.gov.au/fwo/IDQ60801/IDQ60801.94562.json